Time;durP1;ratioP1;P1;durP2;ratioP2;P2;SDS_P1;SDS_P2;PMS_P1;PMS_P2;Temp;Humidity;BMP_temperature;BMP_pressure;BME280_temperature;BME280_humidity;BME280_pressure;Samples;Min_cycle;Max_cycle;Signal;HPM_P1;HPM_P2
2021/12/14 00:02:13;;;;;;;25.27;13.68;;;3.40;99.90;;;;;;5026719;28;20038;-77
2021/12/14 00:04:39;;;;;;;27.67;14.32;;;3.40;99.90;;;;;;5006241;28;20080;-77
2021/12/14 00:07:10;;;;;;;24.50;13.90;;;3.30;99.90;;;;;;5016463;28;20034;-77
2021/12/14 00:09:40;;;;;;;25.35;13.50;;;3.30;99.90;;;;;;5009832;28;20026;-77
2021/12/14 00:12:55;;;;;;;24.90;13.60;;;3.10;99.90;;;;;;5027666;28;20030;-77
2021/12/14 00:15:13;;;;;;;24.00;13.20;;;3.30;99.90;;;;;;5027226;28;20025;-77
2021/12/14 00:17:42;;;;;;;28.05;13.63;;;3.30;99.90;;;;;;5028478;28;20034;-77
2021/12/14 00:20:17;;;;;;;26.35;14.10;;;3.30;99.90;;;;;;5006199;28;20073;-77
2021/12/14 00:25:42;;;;;;;28.25;14.77;;;3.30;99.90;;;;;;5027013;28;20021;-77
2021/12/14 00:28:19;;;;;;;29.00;14.60;;;3.30;99.90;;;;;;5030698;28;20075;-77
2021/12/14 00:30:48;;;;;;;27.40;14.88;;;3.30;99.90;;;;;;5030584;28;20037;-77
2021/12/14 00:33:16;;;;;;;30.20;14.68;;;3.20;99.90;;;;;;5011790;28;20079;-78
2021/12/14 00:35:42;;;;;;;26.83;13.73;;;3.30;99.90;;;;;;5032071;28;20026;-77
2021/12/14 00:38:10;;;;;;;29.65;14.43;;;3.20;99.90;;;;;;5030367;28;20057;-77
2021/12/14 00:40:41;;;;;;;26.55;14.65;;;3.10;99.90;;;;;;5030537;28;20547;-77
2021/12/14 00:43:08;;;;;;;29.75;14.32;;;3.20;99.90;;;;;;5030281;28;20029;-77
2021/12/14 00:45:37;;;;;;;30.85;15.13;;;3.10;99.90;;;;;;5030485;28;20041;-77
2021/12/14 00:48:05;;;;;;;27.88;14.23;;;2.80;99.90;;;;;;5010769;28;20100;-77
2021/12/14 00:50:31;;;;;;;26.05;14.40;;;2.80;99.90;;;;;;5031570;28;20029;-77
2021/12/14 00:52:57;;;;;;;27.42;14.98;;;2.80;99.90;;;;;;5030044;28;20114;-77
2021/12/14 00:55:31;;;;;;;27.40;14.32;;;2.90;99.90;;;;;;5030217;28;20104;-77
2021/12/14 00:57:58;;;;;;;29.23;15.27;;;2.70;99.90;;;;;;5009203;28;20117;-77
2021/12/14 01:00:28;;;;;;;26.42;14.35;;;2.40;99.90;;;;;;5029835;28;20029;-77
2021/12/14 01:02:54;;;;;;;25.40;13.50;;;2.30;99.90;;;;;;5031235;28;20029;-77
2021/12/14 01:05:31;;;;;;;21.83;11.85;;;2.40;99.90;;;;;;5030106;28;20034;-77
2021/12/14 01:07:57;;;;;;;19.55;12.82;;;2.40;99.90;;;;;;5030158;28;20037;-77
2021/12/14 01:10:28;;;;;;;20.95;12.10;;;2.30;99.90;;;;;;5029699;28;20021;-76
2021/12/14 01:12:59;;;;;;;21.10;11.90;;;2.20;99.90;;;;;;5029719;28;20049;-77
2021/12/14 01:23:58;;;;;;;14.65;9.40;;;2.40;99.90;;;;;;5030539;28;20435;-77
2021/12/14 01:26:24;;;;;;;16.00;8.45;;;2.50;99.90;;;;;;5030329;28;20032;-78
2021/12/14 01:28:50;;;;;;;14.38;7.95;;;2.50;99.90;;;;;;5028992;28;20021;-77
2021/12/14 01:31:26;;;;;;;15.45;8.35;;;2.50;99.90;;;;;;5010568;28;20036;-77
2021/12/14 01:33:56;;;;;;;10.93;7.20;;;2.20;99.90;;;;;;5029643;28;20083;-77
2021/12/14 01:36:28;;;;;;;11.82;6.70;;;2.00;99.90;;;;;;5011876;28;20517;-77
2021/12/14 01:39:20;;;;;;;11.23;7.30;;;2.00;99.90;;;;;;5030177;28;20108;-77
2021/12/14 01:42:15;;;;;;;11.55;6.97;;;2.10;99.90;;;;;;5031057;28;20037;-77
2021/12/14 01:45:07;;;;;;;11.48;6.60;;;2.30;99.90;;;;;;5030871;28;20026;-77
2021/12/14 01:47:40;;;;;;;10.40;6.72;;;2.30;99.90;;;;;;5008814;28;20073;-77
2021/12/14 01:50:13;;;;;;;12.23;7.03;;;2.30;99.90;;;;;;5027175;28;20116;-77
2021/12/14 01:52:40;;;;;;;10.85;6.32;;;2.30;99.90;;;;;;5029316;28;20032;-77
2021/12/14 01:55:15;;;;;;;11.68;6.97;;;2.30;99.90;;;;;;5008341;28;20053;-77
2021/12/14 01:57:42;;;;;;;12.57;6.20;;;2.30;99.90;;;;;;5029113;28;20021;-77
2021/12/14 02:00:14;;;;;;;13.05;7.13;;;2.30;99.90;;;;;;5029153;28;20029;-77
2021/12/14 02:02:44;;;;;;;12.10;6.50;;;2.20;99.90;;;;;;5030490;28;20056;-77
2021/12/14 02:05:16;;;;;;;10.23;5.85;;;2.30;99.90;;;;;;5029058;28;20121;-78
2021/12/14 02:07:41;;;;;;;10.98;6.68;;;2.40;99.90;;;;;;5007478;28;20112;-78
2021/12/14 02:10:21;;;;;;;9.98;6.35;;;2.30;99.90;;;;;;5018761;28;20093;-78
2021/12/14 02:12:47;;;;;;;10.10;5.78;;;2.40;99.90;;;;;;5010922;28;20087;-78
2021/12/14 02:15:22;;;;;;;11.15;6.20;;;2.50;99.90;;;;;;5028979;28;20029;-77
2021/12/14 02:17:50;;;;;;;9.90;5.53;;;2.50;99.90;;;;;;5030540;28;20115;-77
2021/12/14 02:20:20;;;;;;;9.18;5.88;;;2.40;99.90;;;;;;5028435;28;20025;-78
2021/12/14 02:22:46;;;;;;;9.35;6.03;;;2.40;99.90;;;;;;5028222;28;20038;-78
2021/12/14 02:25:13;;;;;;;10.27;5.57;;;2.40;99.90;;;;;;5028331;28;20482;-77
2021/12/14 02:27:43;;;;;;;9.82;5.53;;;2.40;99.90;;;;;;5010941;28;20022;-77
2021/12/14 02:30:14;;;;;;;9.73;5.93;;;2.40;99.90;;;;;;5028982;28;20025;-78
2021/12/14 02:32:40;;;;;;;11.77;5.78;;;2.30;99.90;;;;;;5029962;28;20044;-77
2021/12/14 02:35:09;;;;;;;11.77;6.35;;;2.30;99.90;;;;;;5010586;28;20025;-77
2021/12/14 02:37:51;;;;;;;9.75;5.63;;;2.30;99.90;;;;;;5027851;28;20036;-77
2021/12/14 02:43:12;;;;;;;9.95;5.43;;;2.20;99.90;;;;;;5027865;28;20040;-77
2021/12/14 02:45:38;;;;;;;7.47;5.10;;;2.10;99.90;;;;;;5010328;28;20041;-77
2021/12/14 02:48:08;;;;;;;9.35;5.07;;;2.00;99.90;;;;;;5008764;28;20124;-77
2021/12/14 02:50:34;;;;;;;10.65;5.85;;;2.10;99.90;;;;;;5029323;28;20029;-77
2021/12/14 02:53:00;;;;;;;10.00;5.93;;;2.20;99.90;;;;;;5027781;28;20037;-77
2021/12/14 02:55:27;;;;;;;7.75;4.75;;;2.20;99.90;;;;;;5027752;28;20433;-77
2021/12/14 02:57:57;;;;;;;9.18;4.93;;;2.20;99.90;;;;;;5028352;28;20052;-77
2021/12/14 03:00:31;;;;;;;9.55;5.25;;;2.10;99.90;;;;;;5010358;28;20026;-76
2021/12/14 03:02:58;;;;;;;8.98;5.30;;;2.20;99.90;;;;;;5025697;28;20025;-76
2021/12/14 03:05:29;;;;;;;9.95;5.43;;;2.10;99.90;;;;;;5007546;28;20029;-76
2021/12/14 03:08:01;;;;;;;10.57;5.82;;;2.20;99.90;;;;;;5023500;28;20030;-76
2021/12/14 03:12:56;;;;;;;8.93;5.25;;;2.00;99.90;;;;;;5027803;28;20030;-76
2021/12/14 03:15:28;;;;;;;8.48;5.43;;;2.00;99.90;;;;;;5028080;28;20060;-76
2021/12/14 03:17:58;;;;;;;9.38;5.45;;;2.00;99.90;;;;;;5029673;28;20026;-76
2021/12/14 03:20:31;;;;;;;9.32;4.97;;;2.00;99.90;;;;;;5028419;28;20037;-77
2021/12/14 03:23:12;;;;;;;10.13;5.85;;;2.10;99.90;;;;;;5027550;28;20053;-76
2021/12/14 03:25:44;;;;;;;10.43;4.97;;;2.10;99.90;;;;;;5027503;28;20100;-76
2021/12/14 03:28:14;;;;;;;8.73;5.05;;;2.00;99.90;;;;;;5027529;28;20029;-76
2021/12/14 03:30:47;;;;;;;9.85;5.80;;;2.00;99.90;;;;;;5027656;28;20021;-76
2021/12/14 03:33:23;;;;;;;8.55;5.40;;;2.00;99.90;;;;;;5027625;28;20083;-76
2021/12/14 03:36:05;;;;;;;8.98;5.65;;;2.00;99.90;;;;;;5029146;28;20142;-76
2021/12/14 03:38:33;;;;;;;8.00;4.75;;;2.00;99.90;;;;;;5028328;28;20108;-76
2021/12/14 03:41:01;;;;;;;8.80;5.20;;;1.90;99.90;;;;;;5027332;28;20029;-76
2021/12/14 03:43:28;;;;;;;7.88;4.95;;;1.90;99.90;;;;;;5027620;28;20029;-76
2021/12/14 03:45:55;;;;;;;8.48;4.78;;;1.80;99.90;;;;;;5006354;28;20376;-76
2021/12/14 03:48:27;;;;;;;7.20;4.68;;;1.80;99.90;;;;;;5027156;28;20025;-76
2021/12/14 03:50:53;;;;;;;8.82;5.57;;;1.80;99.90;;;;;;5028817;28;20039;-76
2021/12/14 03:53:21;;;;;;;8.55;4.88;;;1.70;99.90;;;;;;5027518;28;20258;-76
2021/12/14 03:55:50;;;;;;;9.23;5.18;;;1.80;99.90;;;;;;5027493;28;20032;-76
2021/12/14 03:58:22;;;;;;;9.48;4.72;;;1.80;99.90;;;;;;5027435;28;20052;-76
2021/12/14 04:00:54;;;;;;;9.32;5.90;;;1.80;99.90;;;;;;5010509;28;20503;-76
2021/12/14 04:03:22;;;;;;;8.13;5.22;;;1.70;99.90;;;;;;5031602;28;20029;-76
2021/12/14 04:05:48;;;;;;;7.70;4.72;;;1.70;99.90;;;;;;5011515;28;20025;-76
2021/12/14 04:08:15;;;;;;;8.93;5.53;;;1.80;99.90;;;;;;5029455;28;20037;-75
2021/12/14 04:10:44;;;;;;;9.65;5.40;;;1.60;99.90;;;;;;5031581;28;20499;-76
2021/12/14 04:13:21;;;;;;;9.40;6.03;;;1.40;99.90;;;;;;5010900;28;20088;-76
2021/12/14 04:15:47;;;;;;;9.88;5.72;;;1.60;99.90;;;;;;5031063;28;20112;-75
2021/12/14 04:18:13;;;;;;;11.95;7.05;;;1.60;99.90;;;;;;5013028;28;20030;-76
2021/12/14 04:20:42;;;;;;;11.82;6.68;;;1.70;99.90;;;;;;5030525;28;20426;-75
2021/12/14 04:23:12;;;;;;;9.95;6.35;;;1.60;99.90;;;;;;5030402;28;20490;-76
2021/12/14 04:25:39;;;;;;;11.18;6.32;;;1.50;99.90;;;;;;5030556;28;20525;-75
2021/12/14 04:28:10;;;;;;;10.27;5.95;;;1.50;99.90;;;;;;5030830;28;20036;-75
2021/12/14 04:30:36;;;;;;;10.80;5.60;;;1.50;99.90;;;;;;5030611;28;20518;-75
2021/12/14 04:33:08;;;;;;;10.98;6.30;;;1.60;99.90;;;;;;5031217;28;20022;-75
2021/12/14 04:35:37;;;;;;;12.20;6.50;;;1.60;99.90;;;;;;5010534;28;20511;-75
2021/12/14 04:38:12;;;;;;;9.43;5.70;;;1.40;99.90;;;;;;5027516;28;20033;-75
2021/12/14 04:54:14;;;;;;;8.65;5.47;;;1.30;99.90;;;;;;5030498;28;20117;-75
2021/12/14 04:56:42;;;;;;;8.95;5.00;;;1.30;99.90;;;;;;5013793;28;20120;-75
2021/12/14 04:59:19;;;;;;;10.32;5.72;;;1.30;99.90;;;;;;5030398;28;20017;-75
2021/12/14 05:01:47;;;;;;;9.40;4.80;;;1.40;99.90;;;;;;5009049;28;20466;-75
2021/12/14 05:04:18;;;;;;;7.47;4.60;;;1.40;99.90;;;;;;5020282;28;20017;-75
2021/12/14 05:06:47;;;;;;;8.57;5.85;;;1.40;99.90;;;;;;5030063;28;20487;-75
2021/12/14 05:09:23;;;;;;;8.57;5.00;;;1.20;99.90;;;;;;5030393;28;20017;-74
2021/12/14 05:11:51;;;;;;;8.77;5.35;;;1.00;99.90;;;;;;5009097;28;20182;-75
2021/12/14 05:14:17;;;;;;;9.27;5.00;;;0.90;99.90;;;;;;5028293;28;20048;-75
2021/12/14 05:16:43;;;;;;;9.90;5.90;;;1.10;99.90;;;;;;5030010;28;20021;-75
2021/12/14 05:19:11;;;;;;;6.60;4.65;;;1.20;99.90;;;;;;5009896;28;20028;-75
2021/12/14 05:21:44;;;;;;;7.97;4.45;;;1.20;99.90;;;;;;5030148;28;20017;-75
2021/12/14 05:24:14;;;;;;;8.07;5.35;;;1.20;99.90;;;;;;5012408;28;20100;-75
2021/12/14 05:26:40;;;;;;;6.85;4.40;;;1.30;99.90;;;;;;5013276;28;20045;-75
2021/12/14 05:29:09;;;;;;;8.73;5.03;;;1.30;99.90;;;;;;5029520;28;20567;-75
2021/12/14 05:31:42;;;;;;;6.82;5.25;;;1.30;99.90;;;;;;5011907;28;20041;-75
2021/12/14 05:34:08;;;;;;;9.15;4.88;;;1.30;99.90;;;;;;5009291;28;20067;-75
2021/12/14 05:36:34;;;;;;;8.02;4.90;;;1.10;99.90;;;;;;5012009;28;20219;-74
2021/12/14 05:39:17;;;;;;;9.27;4.53;;;0.90;99.90;;;;;;5029860;28;20036;-75
2021/12/14 05:44:24;;;;;;;6.75;4.60;;;1.10;99.90;;;;;;5029405;28;20585;-75
2021/12/14 05:46:53;;;;;;;6.38;4.13;;;1.10;99.90;;;;;;5008055;28;20050;-75
2021/12/14 05:49:22;;;;;;;6.63;4.22;;;1.10;99.90;;;;;;5020508;28;20017;-75
2021/12/14 05:51:50;;;;;;;7.18;4.88;;;1.10;99.90;;;;;;5029372;28;20036;-74
2021/12/14 05:54:25;;;;;;;7.13;4.60;;;1.20;99.90;;;;;;5029409;28;20041;-75
2021/12/14 05:56:52;;;;;;;7.05;4.72;;;1.20;99.90;;;;;;5030740;28;20072;-74
2021/12/14 05:59:23;;;;;;;7.60;4.78;;;1.20;99.90;;;;;;5007944;28;20022;-74
2021/12/14 06:01:49;;;;;;;7.05;4.00;;;1.30;99.90;;;;;;5022970;28;20026;-74
2021/12/14 06:04:16;;;;;;;7.18;4.57;;;1.10;99.90;;;;;;5028772;28;20159;-74
2021/12/14 06:06:49;;;;;;;8.27;4.65;;;1.20;99.90;;;;;;5029116;28;20050;-74
2021/12/14 06:09:24;;;;;;;8.18;4.28;;;1.10;99.90;;;;;;5028198;28;20100;-74
2021/12/14 06:12:00;;;;;;;7.68;4.10;;;1.10;99.90;;;;;;5030231;28;20025;-74
2021/12/14 06:14:29;;;;;;;8.68;4.63;;;1.10;99.90;;;;;;5029250;28;20029;-74
2021/12/14 06:17:02;;;;;;;8.15;5.22;;;1.10;99.90;;;;;;5028857;28;20030;-75
2021/12/14 06:19:32;;;;;;;7.10;4.47;;;1.10;99.90;;;;;;5010587;28;20656;-74
2021/12/14 06:22:02;;;;;;;7.72;4.72;;;1.20;99.90;;;;;;5028826;28;20032;-74
2021/12/14 06:24:31;;;;;;;7.43;4.30;;;1.20;99.90;;;;;;5028352;28;20045;-74
2021/12/14 06:27:00;;;;;;;7.93;4.82;;;1.10;99.90;;;;;;5009226;28;20037;-74
2021/12/14 06:29:42;;;;;;;7.20;4.13;;;0.80;99.90;;;;;;5029463;28;20021;-74
2021/12/14 06:32:33;;;;;;;7.68;4.97;;;0.90;99.90;;;;;;5007599;28;20125;-74
2021/12/14 06:35:06;;;;;;;6.80;4.35;;;0.90;99.90;;;;;;5025078;28;20029;-74
2021/12/14 06:38:06;;;;;;;6.72;4.07;;;0.90;99.90;;;;;;5007293;28;20037;-74
2021/12/14 06:41:13;;;;;;;6.50;4.38;;;0.80;99.90;;;;;;5021409;28;20022;-75
2021/12/14 06:43:44;;;;;;;7.28;4.50;;;0.80;99.90;;;;;;4986119;28;20098;-74
2021/12/14 06:46:15;;;;;;;8.45;5.60;;;1.00;99.90;;;;;;4986367;28;20642;-74
2021/12/14 06:48:49;;;;;;;7.00;4.30;;;1.00;99.90;;;;;;4986530;28;20054;-74
2021/12/14 06:51:17;;;;;;;6.57;3.78;;;1.00;99.90;;;;;;4986652;28;20039;-74
2021/12/14 06:53:48;;;;;;;5.45;3.95;;;1.00;99.90;;;;;;4987827;28;20422;-74
2021/12/14 06:56:16;;;;;;;6.85;4.40;;;1.10;99.90;;;;;;4986435;28;20062;-74
2021/12/14 06:59:04;;;;;;;6.75;5.07;;;1.00;99.90;;;;;;4986503;28;20049;-74
2021/12/14 07:01:34;;;;;;;6.78;4.35;;;1.00;99.90;;;;;;4969812;28;20113;-74
2021/12/14 07:04:05;;;;;;;9.30;5.47;;;1.00;99.90;;;;;;4986062;28;20593;-74
2021/12/14 07:07:06;;;;;;;6.28;4.45;;;0.90;99.90;;;;;;4970089;28;20057;-74
2021/12/14 07:09:40;;;;;;;6.35;4.40;;;0.90;99.90;;;;;;4986420;28;20030;-74
2021/12/14 07:12:17;;;;;;;7.40;4.50;;;0.90;99.90;;;;;;4986788;28;20525;-74
2021/12/14 07:14:49;;;;;;;9.10;5.40;;;0.90;99.90;;;;;;4987428;28;20045;-74
2021/12/14 07:17:29;;;;;;;5.47;3.75;;;1.00;99.90;;;;;;4985667;28;20034;-74
2021/12/14 07:19:57;;;;;;;9.05;4.05;;;0.90;99.90;;;;;;5018308;28;20044;-74
2021/12/14 07:22:23;;;;;;;6.15;4.30;;;1.00;99.90;;;;;;5028045;28;20029;-74
2021/12/14 07:25:36;;;;;;;7.40;4.63;;;1.00;99.90;;;;;;5028061;28;20037;-74
2021/12/14 07:28:07;;;;;;;10.05;5.13;;;1.00;99.90;;;;;;4966602;28;20023;-74
2021/12/14 07:30:39;;;;;;;7.63;4.18;;;0.90;99.90;;;;;;4961241;28;20030;-74
2021/12/14 07:33:13;;;;;;;9.20;5.07;;;0.90;99.90;;;;;;4950043;28;20042;-74
2021/12/14 07:35:57;;;;;;;8.88;5.50;;;1.00;99.90;;;;;;4965131;28;20062;-74
2021/12/14 07:38:25;;;;;;;9.35;5.20;;;1.10;99.90;;;;;;4969441;28;20133;-74
2021/12/14 07:41:17;;;;;;;11.02;5.40;;;1.10;99.90;;;;;;4970015;28;20027;-74
2021/12/14 07:43:43;;;;;;;;;;;1.10;99.90;;;;;;4912506;29;20047;-74
2021/12/14 07:46:14;;;;;;;8.30;5.40;;;1.30;99.90;;;;;;4912157;29;19919;-74
2021/12/14 07:48:47;;;;;;;9.70;5.90;;;1.30;99.90;;;;;;4912525;29;20032;-74
2021/12/14 07:51:13;;;;;;;9.93;5.53;;;1.50;99.90;;;;;;4912645;29;20119;-74
2021/12/14 07:53:54;;;;;;;10.02;5.78;;;1.90;99.90;;;;;;4913393;29;20164;-74
2021/12/14 07:56:35;;;;;;;9.90;6.13;;;1.70;99.90;;;;;;4910936;29;20088;-74
2021/12/14 07:59:09;;;;;;;8.40;4.93;;;1.70;99.90;;;;;;4945424;28;20047;-73
2021/12/14 08:01:35;;;;;;;11.27;6.03;;;1.60;99.90;;;;;;4969532;28;20072;-74
2021/12/14 08:04:10;;;;;;;9.63;5.47;;;1.90;99.90;;;;;;4969213;28;20632;-73
2021/12/14 08:06:55;;;;;;;7.18;4.95;;;2.00;99.90;;;;;;4969399;28;20030;-74
2021/12/14 08:09:50;;;;;;;7.78;5.40;;;2.20;99.90;;;;;;4969638;28;20208;-74
2021/12/14 08:12:36;;;;;;;8.95;4.82;;;2.20;99.90;;;;;;4952044;28;20034;-74
2021/12/14 08:15:08;;;;;;;8.77;5.22;;;2.00;99.90;;;;;;4969528;28;20053;-74
2021/12/14 08:17:36;;;;;;;8.30;4.60;;;2.10;99.90;;;;;;4970543;28;20033;-74
2021/12/14 08:20:07;;;;;;;7.72;5.03;;;1.90;99.90;;;;;;4981976;28;20095;-74
2021/12/14 08:22:35;;;;;;;8.55;4.55;;;2.20;99.90;;;;;;5030344;28;20067;-74
2021/12/14 08:25:02;;;;;;;8.48;4.22;;;2.30;99.90;;;;;;5030075;28;20030;-74
2021/12/14 08:27:29;;;;;;;6.82;4.80;;;2.30;99.90;;;;;;5030583;28;20227;-74
2021/12/14 08:29:57;;;;;;;5.88;4.13;;;2.20;99.90;;;;;;5009891;28;20032;-74
2021/12/14 08:32:30;;;;;;;8.70;5.18;;;2.50;99.90;;;;;;5012029;28;20584;-74
2021/12/14 08:34:58;;;;;;;7.07;4.97;;;2.10;99.90;;;;;;5030124;28;20045;-74
2021/12/14 08:37:37;;;;;;;8.10;4.40;;;2.20;99.90;;;;;;5029072;28;20022;-74
2021/12/14 08:40:06;;;;;;;8.70;4.50;;;2.60;99.90;;;;;;5030420;28;20021;-74
2021/12/14 08:42:49;;;;;;;6.95;4.15;;;3.10;99.90;;;;;;5011928;28;20064;-74
2021/12/14 08:45:26;;;;;;;7.47;3.97;;;3.30;99.90;;;;;;5011967;28;20029;-74
2021/12/14 08:47:55;;;;;;;6.60;4.60;;;3.00;99.90;;;;;;5030803;28;20037;-74
2021/12/14 08:50:21;;;;;;;8.15;5.05;;;3.00;99.90;;;;;;5029608;28;20022;-74
2021/12/14 08:52:47;;;;;;;8.25;4.72;;;3.50;99.90;;;;;;5029904;28;20072;-74
2021/12/14 08:55:16;;;;;;;6.65;3.83;;;3.90;99.90;;;;;;5029227;28;20029;-74
2021/12/14 08:57:43;;;;;;;5.43;3.38;;;3.80;99.90;;;;;;5029650;28;20032;-74
2021/12/14 09:00:26;;;;;;;9.25;4.72;;;5.00;99.90;;;;;;5030066;28;20033;-74
2021/12/14 09:02:58;;;;;;;9.70;4.70;;;5.50;99.90;;;;;;5029858;28;20032;-74
2021/12/14 09:05:46;;;;;;;9.45;5.22;;;7.20;99.90;;;;;;5029417;28;20030;-74
2021/12/14 09:08:14;;;;;;;6.55;4.55;;;10.30;99.00;;;;;;5025495;28;20494;-74
2021/12/14 09:10:43;;;;;;;7.18;3.95;;;10.10;96.80;;;;;;5029480;28;20078;-74
2021/12/14 09:13:11;;;;;;;7.10;5.40;;;9.10;97.20;;;;;;5029117;28;20028;-74
2021/12/14 09:15:49;;;;;;;8.18;4.65;;;6.80;99.90;;;;;;5022364;28;20022;-74
2021/12/14 09:18:17;;;;;;;10.95;4.57;;;5.70;99.90;;;;;;5028448;28;20057;-74
2021/12/14 09:20:48;;;;;;;9.15;5.05;;;5.50;99.90;;;;;;5027041;28;20021;-74
2021/12/14 09:23:17;;;;;;;8.55;4.38;;;5.00;99.90;;;;;;5007245;28;20526;-74
2021/12/14 09:25:45;;;;;;;8.23;4.85;;;5.00;99.90;;;;;;5004826;28;20052;-74
2021/12/14 09:28:11;;;;;;;11.27;5.32;;;4.90;99.90;;;;;;5028311;28;20017;-74
2021/12/14 09:30:43;;;;;;;8.82;5.30;;;4.90;99.90;;;;;;5011492;28;20030;-74
2021/12/14 09:33:10;;;;;;;8.85;5.35;;;4.40;99.90;;;;;;5029292;28;20498;-74
2021/12/14 09:35:38;;;;;;;11.90;6.22;;;4.40;99.90;;;;;;5030165;28;20116;-74
2021/12/14 09:38:11;;;;;;;9.45;4.78;;;4.50;99.90;;;;;;5028550;28;20024;-74
2021/12/14 09:40:43;;;;;;;8.32;5.25;;;4.40;99.90;;;;;;5023180;28;20033;-74
2021/12/14 09:43:10;;;;;;;8.88;5.90;;;4.50;99.90;;;;;;5009959;28;20487;-74
2021/12/14 09:45:43;;;;;;;10.68;5.78;;;4.60;99.90;;;;;;5027992;28;20435;-74
2021/12/14 09:48:12;;;;;;;9.88;5.63;;;4.50;99.90;;;;;;5028045;28;20385;-73
2021/12/14 09:50:41;;;;;;;9.15;5.50;;;4.50;99.90;;;;;;5028752;28;20048;-74
2021/12/14 09:53:11;;;;;;;13.18;5.85;;;4.50;99.90;;;;;;5027374;28;20029;-74
2021/12/14 09:55:40;;;;;;;10.85;5.78;;;4.50;99.90;;;;;;5009215;28;20522;-74
2021/12/14 09:58:11;;;;;;;8.98;6.18;;;4.70;99.90;;;;;;5027487;28;20103;-74
2021/12/14 10:00:42;;;;;;;12.70;7.07;;;4.70;99.90;;;;;;5027613;28;20079;-74
2021/12/14 10:03:08;;;;;;;13.85;7.60;;;4.80;99.90;;;;;;5027434;28;20065;-74
2021/12/14 10:05:41;;;;;;;12.90;7.28;;;5.00;99.90;;;;;;5007182;28;20574;-74
2021/12/14 10:08:18;;;;;;;13.13;7.20;;;5.00;99.90;;;;;;5023946;28;20498;-74
2021/12/14 10:11:04;;;;;;;10.30;6.22;;;5.10;99.90;;;;;;5021553;28;20052;-74
2021/12/14 10:13:32;;;;;;;9.32;5.63;;;5.20;99.90;;;;;;5026805;28;20033;-74
2021/12/14 10:15:59;;;;;;;10.98;6.38;;;5.20;99.90;;;;;;5027271;28;20067;-74
2021/12/14 10:18:38;;;;;;;12.38;6.63;;;5.30;99.90;;;;;;5009729;28;20029;-74
2021/12/14 10:21:12;;;;;;;10.75;5.88;;;5.50;99.90;;;;;;5027841;28;20044;-74
2021/12/14 10:23:40;;;;;;;9.73;5.63;;;5.60;99.90;;;;;;5028383;28;20159;-74
2021/12/14 10:26:08;;;;;;;8.07;4.78;;;5.60;99.90;;;;;;5026671;28;20113;-74
2021/12/14 10:28:36;;;;;;;10.50;5.32;;;5.50;99.90;;;;;;5005766;28;20029;-74
2021/12/14 10:31:07;;;;;;;9.90;5.57;;;5.50;99.90;;;;;;5015849;28;20018;-74
2021/12/14 10:33:34;;;;;;;8.63;5.32;;;5.50;99.90;;;;;;5027289;28;20025;-74
2021/12/14 10:36:06;;;;;;;8.38;5.00;;;5.70;99.90;;;;;;5028591;28;20029;-75
2021/12/14 10:38:39;;;;;;;7.97;5.13;;;5.70;99.90;;;;;;5027372;28;20498;-74
2021/12/14 10:44:01;;;;;;;6.53;4.45;;;5.70;99.90;;;;;;5027228;28;20091;-74
2021/12/14 10:46:33;;;;;;;6.30;3.95;;;6.00;99.90;;;;;;5026707;28;20162;-74
2021/12/14 10:48:59;;;;;;;8.57;5.00;;;6.00;99.90;;;;;;5027463;28;20025;-74
2021/12/14 10:51:29;;;;;;;8.48;4.50;;;6.10;99.90;;;;;;5027247;28;20030;-74
2021/12/14 10:53:57;;;;;;;7.05;4.82;;;6.00;99.90;;;;;;5028179;28;20107;-74
2021/12/14 10:56:29;;;;;;;6.28;4.30;;;6.30;99.90;;;;;;5026449;28;20041;-75
2021/12/14 10:58:59;;;;;;;7.30;4.97;;;6.10;99.90;;;;;;5021544;28;20029;-74
2021/12/14 11:01:32;;;;;;;7.03;4.38;;;6.30;99.90;;;;;;5008698;28;20064;-74
2021/12/14 11:04:11;;;;;;;6.53;3.97;;;6.40;99.90;;;;;;5026523;28;20033;-74
2021/12/14 11:06:42;;;;;;;7.88;4.70;;;6.60;99.90;;;;;;5026329;28;20028;-74
2021/12/14 11:11:47;;;;;;;6.53;3.85;;;6.80;99.90;;;;;;5027219;28;20435;-74
2021/12/14 11:14:15;;;;;;;7.72;4.40;;;6.70;99.90;;;;;;5025804;28;20045;-74
2021/12/14 11:19:40;;;;;;;9.93;4.35;;;6.70;99.90;;;;;;5027092;28;20415;-74
2021/12/14 11:22:41;;;;;;;8.35;4.38;;;7.50;99.90;;;;;;5027244;28;20025;-74
2021/12/14 11:25:20;;;;;;;7.20;4.07;;;7.50;99.90;;;;;;5009036;28;20080;-74
2021/12/14 11:28:00;;;;;;;6.70;4.28;;;7.50;99.90;;;;;;5027552;28;20061;-74
2021/12/14 11:30:41;;;;;;;6.40;4.75;;;7.50;99.90;;;;;;5026696;28;20030;-74
2021/12/14 11:33:17;;;;;;;7.35;4.43;;;7.70;99.90;;;;;;5027718;28;20108;-74
2021/12/14 11:35:53;;;;;;;7.18;3.55;;;7.70;99.90;;;;;;5005349;28;20080;-74
2021/12/14 11:38:38;;;;;;;7.82;4.97;;;7.90;99.90;;;;;;5025300;28;20044;-75
2021/12/14 11:41:23;;;;;;;6.53;3.78;;;7.90;99.90;;;;;;5026722;28;20022;-75
2021/12/14 11:43:56;;;;;;;5.60;4.15;;;7.50;99.90;;;;;;5026307;28;20510;-75
2021/12/14 11:46:23;;;;;;;5.30;3.63;;;7.30;99.90;;;;;;5026383;28;20037;-75
2021/12/14 11:48:49;;;;;;;6.78;4.00;;;7.30;99.90;;;;;;5008802;28;20026;-75
2021/12/14 11:51:16;;;;;;;6.70;4.07;;;7.20;99.90;;;;;;5026802;28;20024;-75
2021/12/14 11:53:51;;;;;;;6.82;3.67;;;7.20;99.90;;;;;;5028057;28;20037;-74
2021/12/14 11:56:21;;;;;;;6.00;4.10;;;7.20;99.90;;;;;;5008901;28;20025;-75
2021/12/14 11:58:51;;;;;;;6.75;3.63;;;7.20;99.90;;;;;;5026860;28;20052;-75
2021/12/14 12:01:27;;;;;;;7.68;3.75;;;7.50;99.90;;;;;;5026310;28;20034;-75
2021/12/14 12:04:14;;;;;;;10.05;3.63;;;7.70;99.90;;;;;;5026472;28;20025;-76
2021/12/14 12:09:33;;;;;;;5.82;3.20;;;7.30;99.90;;;;;;5026820;28;20124;-75
2021/12/14 12:12:04;;;;;;;11.05;3.85;;;7.40;99.90;;;;;;5028178;28;20025;-75
2021/12/14 12:14:36;;;;;;;5.30;3.40;;;7.50;99.90;;;;;;5006268;28;20040;-76
2021/12/14 12:17:11;;;;;;;5.25;3.28;;;7.50;99.90;;;;;;5023451;28;20026;-75
2021/12/14 12:19:38;;;;;;;7.40;3.40;;;7.50;99.90;;;;;;5026043;28;20026;-75
2021/12/14 12:22:13;;;;;;;6.65;2.97;;;7.70;99.90;;;;;;5027582;28;20017;-76
2021/12/14 12:24:47;;;;;;;5.50;3.33;;;7.70;99.90;;;;;;5030064;28;20049;-76
2021/12/14 12:27:21;;;;;;;5.10;3.58;;;7.80;99.90;;;;;;5030310;28;20013;-76
2021/12/14 12:29:48;;;;;;;5.25;3.60;;;7.80;99.90;;;;;;5031365;28;20025;-75
2021/12/14 12:32:21;;;;;;;7.78;3.42;;;7.80;99.90;;;;;;5030078;28;20022;-75
2021/12/14 12:34:49;;;;;;;5.00;3.17;;;7.90;99.90;;;;;;5012045;28;20029;-76
2021/12/14 12:37:16;;;;;;;6.15;3.63;;;7.90;99.90;;;;;;5028217;28;20033;-76
2021/12/14 12:39:49;;;;;;;5.07;3.42;;;8.20;99.90;;;;;;5029810;28;20108;-76
2021/12/14 12:42:16;;;;;;;5.57;3.22;;;8.20;99.90;;;;;;5030150;28;20239;-76
2021/12/14 12:44:43;;;;;;;5.15;3.15;;;8.50;99.90;;;;;;5011608;28;20032;-76
2021/12/14 12:47:11;;;;;;;7.30;3.60;;;8.30;99.90;;;;;;5011694;28;20080;-75
2021/12/14 12:49:38;;;;;;;5.10;3.22;;;8.00;99.90;;;;;;5029441;28;20026;-76
2021/12/14 12:52:19;;;;;;;6.70;3.70;;;8.80;99.90;;;;;;5029759;28;20025;-76
2021/12/14 12:54:50;;;;;;;7.30;4.18;;;9.00;99.90;;;;;;5029741;28;20025;-76
2021/12/14 12:57:23;;;;;;;;;;;9.00;99.90;;;;;;5010668;28;20022;-76
2021/12/14 12:59:56;;;;;;;6.47;4.38;;;9.00;99.90;;;;;;5030846;28;19929;-76
2021/12/14 13:02:21;;;;;;;8.45;4.93;;;9.00;99.90;;;;;;5008325;28;20026;-76
2021/12/14 13:04:53;;;;;;;8.45;5.32;;;9.50;99.90;;;;;;5019140;28;20036;-76
2021/12/14 13:07:27;;;;;;;7.68;4.28;;;10.00;99.90;;;;;;5008514;28;20036;-76
2021/12/14 13:10:14;;;;;;;8.63;4.82;;;9.60;99.90;;;;;;5028628;28;20476;-76
2021/12/14 13:12:48;;;;;;;6.05;4.68;;;9.50;99.90;;;;;;5028184;28;20052;-76
2021/12/14 13:15:37;;;;;;;6.03;4.20;;;9.20;99.90;;;;;;5025126;28;20057;-76
2021/12/14 13:18:17;;;;;;;9.90;4.47;;;9.10;99.90;;;;;;5029175;28;20104;-76
2021/12/14 13:20:45;;;;;;;6.57;4.90;;;9.30;99.90;;;;;;5028195;28;20056;-76
2021/12/14 13:23:12;;;;;;;6.90;5.10;;;9.80;99.90;;;;;;5027313;28;20045;-76
2021/12/14 13:25:43;;;;;;;8.45;5.30;;;9.80;99.90;;;;;;5006897;28;20410;-76
2021/12/14 13:28:12;;;;;;;9.00;5.78;;;9.50;99.90;;;;;;5016066;28;20029;-76
2021/12/14 13:30:40;;;;;;;7.35;5.18;;;9.40;99.90;;;;;;5028082;28;20483;-76
2021/12/14 13:33:26;;;;;;;7.63;5.05;;;9.40;99.90;;;;;;5027311;28;20074;-76
2021/12/14 13:35:52;;;;;;;12.30;5.65;;;9.40;99.90;;;;;;5029282;28;20044;-76
2021/12/14 13:38:18;;;;;;;8.35;5.93;;;9.60;99.90;;;;;;5006405;28;20113;-76
2021/12/14 13:40:45;;;;;;;13.43;7.28;;;10.00;99.90;;;;;;5021944;28;20464;-76
2021/12/14 13:43:11;;;;;;;13.50;6.93;;;10.20;99.90;;;;;;5027325;28;20522;-76
2021/12/14 13:45:44;;;;;;;10.38;7.65;;;9.90;99.90;;;;;;5009303;28;20033;-76
2021/12/14 13:48:16;;;;;;;10.82;7.05;;;9.60;99.90;;;;;;5008587;28;20068;-76
2021/12/14 13:50:48;;;;;;;10.50;6.68;;;9.60;99.90;;;;;;5026840;28;20109;-77
2021/12/14 13:53:15;;;;;;;12.43;6.80;;;9.60;99.90;;;;;;5008959;28;20116;-76
2021/12/14 13:55:42;;;;;;;11.23;6.40;;;9.70;99.90;;;;;;5006156;28;20036;-76
2021/12/14 13:58:26;;;;;;;10.50;7.05;;;9.60;99.90;;;;;;4999291;28;20029;-76
2021/12/14 14:01:00;;;;;;;10.63;6.38;;;9.60;99.90;;;;;;5027296;28;20132;-76
2021/12/14 14:03:29;;;;;;;10.60;6.28;;;9.50;99.90;;;;;;5026666;28;20059;-76